Spring's Hourly Summary for Monday, May 14, 2018
Hour Temp
(f)
RH
(%)
Solar Rad.
(MJ/m2)
Rainfall
(in)
Wind
(mph)
5/14/2018 12:00 AM 77 78 0 0 5.49
5/14/2018 1:00 AM 76 83 0 0 3.62
5/14/2018 2:00 AM 75 86 0 0 2.86
5/14/2018 3:00 AM 75 89 0 0 3.27
5/14/2018 4:00 AM 74 90 0 0 3.65
5/14/2018 5:00 AM 74 91 0 0 3
5/14/2018 6:00 AM 73 93 0 0 0.46
5/14/2018 7:00 AM 72 94 0.03 0 0.05
5/14/2018 8:00 AM 73 84 0.4 0 0.06
5/14/2018 9:00 AM 77 76 0.98 0 2.96
5/14/2018 10:00 AM 79 66 1.59 0 4.48
5/14/2018 11:00 AM 82 61 1.92 0 3.61
5/14/2018 12:00 PM 84 50 2.77 0 4.24
5/14/2018 1:00 PM 85 48 2.85 0 5.65
5/14/2018 2:00 PM 87 45 2.47 0 5.04
5/14/2018 3:00 PM 88 34 2.86 0 5.93
5/14/2018 4:00 PM 90 31 3.07 0 5.96
5/14/2018 5:00 PM 90 31 2.11 0 5.74
5/14/2018 6:00 PM 90 32 1.95 0 6.62
5/14/2018 7:00 PM 88 28 0.99 0 7.72
5/14/2018 8:00 PM 85 33 0.42 0 7.37
5/14/2018 9:00 PM 82 49 0 0 6.03
5/14/2018 10:00 PM 79 50 0 0 3.83
5/14/2018 11:00 PM 77 62 0 0 4.5
Data Summary 80 61 24.41 0.00 4.26